sensor_id;sensor_type;location;lat;lon;timestamp;pressure;altitude;pressure_sealevel;temperature;humidity
43683;BME280;29285;52.128;21.060;2023-03-03T00:04:52;100738.95;;;1.07;100.00
43683;BME280;29285;52.128;21.060;2023-03-03T00:09:53;100736.79;;;1.02;100.00
43683;BME280;29285;52.128;21.060;2023-03-03T00:14:54;100732.55;;;0.98;100.00
43683;BME280;29285;52.128;21.060;2023-03-03T00:19:55;100730.84;;;0.92;100.00
43683;BME280;29285;52.128;21.060;2023-03-03T00:25:00;100723.70;;;0.87;100.00
43683;BME280;29285;52.128;21.060;2023-03-03T00:30:23;100718.80;;;0.84;100.00
43683;BME280;29285;52.128;21.060;2023-03-03T00:40:30;100710.07;;;0.83;100.00
43683;BME280;29285;52.128;21.060;2023-03-03T00:45:37;100701.83;;;0.82;100.00
43683;BME280;29285;52.128;21.060;2023-03-03T00:50:40;100696.45;;;0.79;100.00
43683;BME280;29285;52.128;21.060;2023-03-03T00:55:43;100689.06;;;0.77;100.00
43683;BME280;29285;52.128;21.060;2023-03-03T01:00:45;100684.15;;;0.73;100.00
43683;BME280;29285;52.128;21.060;2023-03-03T01:05:46;100680.14;;;0.64;100.00
43683;BME280;29285;52.128;21.060;2023-03-03T01:10:48;100672.04;;;0.62;100.00
43683;BME280;29285;52.128;21.060;2023-03-03T01:15:52;100666.59;;;0.57;100.00
43683;BME280;29285;52.128;21.060;2023-03-03T01:20:53;100662.67;;;0.51;100.00
43683;BME280;29285;52.128;21.060;2023-03-03T01:25:55;100654.26;;;0.44;100.00
43683;BME280;29285;52.128;21.060;2023-03-03T01:31:00;100645.70;;;0.37;100.00
43683;BME280;29285;52.128;21.060;2023-03-03T01:36:02;100644.23;;;0.34;100.00
43683;BME280;29285;52.128;21.060;2023-03-03T01:41:03;100632.03;;;0.32;100.00
43683;BME280;29285;52.128;21.060;2023-03-03T01:56:13;100626.30;;;0.34;100.00
43683;BME280;29285;52.128;21.060;2023-03-03T02:01:15;100623.55;;;0.33;100.00
43683;BME280;29285;52.128;21.060;2023-03-03T02:06:18;100618.73;;;0.37;100.00
43683;BME280;29285;52.128;21.060;2023-03-03T02:11:20;100617.59;;;0.33;100.00
43683;BME280;29285;52.128;21.060;2023-03-03T02:16:22;100618.73;;;0.32;100.00
43683;BME280;29285;52.128;21.060;2023-03-03T02:21:23;100617.70;;;0.26;100.00
43683;BME280;29285;52.128;21.060;2023-03-03T02:26:28;100617.11;;;0.23;100.00
43683;BME280;29285;52.128;21.060;2023-03-03T02:31:29;100616.81;;;0.19;100.00
43683;BME280;29285;52.128;21.060;2023-03-03T02:36:32;100611.10;;;0.22;100.00
43683;BME280;29285;52.128;21.060;2023-03-03T02:41:44;100616.09;;;0.24;100.00
43683;BME280;29285;52.128;21.060;2023-03-03T02:46:46;100609.10;;;0.24;100.00
43683;BME280;29285;52.128;21.060;2023-03-03T02:51:48;100608.50;;;0.27;100.00
43683;BME280;29285;52.128;21.060;2023-03-03T02:56:49;100605.07;;;0.26;100.00
43683;BME280;29285;52.128;21.060;2023-03-03T03:01:50;100603.73;;;0.22;100.00
43683;BME280;29285;52.128;21.060;2023-03-03T03:06:52;100605.63;;;0.16;100.00
43683;BME280;29285;52.128;21.060;2023-03-03T03:11:53;100602.17;;;0.09;100.00
43683;BME280;29285;52.128;21.060;2023-03-03T03:16:54;100601.04;;;0.06;100.00
43683;BME280;29285;52.128;21.060;2023-03-03T03:21:55;100593.35;;;-0.00;100.00
43683;BME280;29285;52.128;21.060;2023-03-03T03:26:56;100594.52;;;-0.01;100.00
43683;BME280;29285;52.128;21.060;2023-03-03T03:31:57;100591.25;;;-0.02;100.00
43683;BME280;29285;52.128;21.060;2023-03-03T03:36:58;100594.49;;;-0.02;100.00
43683;BME280;29285;52.128;21.060;2023-03-03T03:41:58;100594.90;;;-0.05;100.00
43683;BME280;29285;52.128;21.060;2023-03-03T03:46:59;100592.40;;;-0.09;100.00
43683;BME280;29285;52.128;21.060;2023-03-03T03:52:00;100595.82;;;-0.08;100.00
43683;BME280;29285;52.128;21.060;2023-03-03T03:57:02;100598.39;;;-0.13;100.00
43683;BME280;29285;52.128;21.060;2023-03-03T04:02:03;100597.23;;;-0.18;100.00
43683;BME280;29285;52.128;21.060;2023-03-03T04:07:04;100585.13;;;-0.18;100.00
43683;BME280;29285;52.128;21.060;2023-03-03T04:12:05;100570.64;;;-0.18;100.00
43683;BME280;29285;52.128;21.060;2023-03-03T04:17:06;100565.41;;;-0.21;100.00
43683;BME280;29285;52.128;21.060;2023-03-03T04:22:07;100570.30;;;-0.23;100.00
43683;BME280;29285;52.128;21.060;2023-03-03T04:27:08;100562.55;;;-0.19;100.00
43683;BME280;29285;52.128;21.060;2023-03-03T04:32:09;100565.23;;;-0.16;100.00
43683;BME280;29285;52.128;21.060;2023-03-03T04:37:10;100556.15;;;-0.18;100.00
43683;BME280;29285;52.128;21.060;2023-03-03T04:42:11;100548.63;;;-0.23;100.00
43683;BME280;29285;52.128;21.060;2023-03-03T04:47:12;100544.70;;;-0.23;100.00
43683;BME280;29285;52.128;21.060;2023-03-03T04:52:13;100544.57;;;-0.22;100.00
43683;BME280;29285;52.128;21.060;2023-03-03T04:57:14;100543.04;;;-0.22;100.00
43683;BME280;29285;52.128;21.060;2023-03-03T05:02:15;100540.35;;;-0.26;100.00
43683;BME280;29285;52.128;21.060;2023-03-03T05:07:17;100540.45;;;-0.34;100.00
43683;BME280;29285;52.128;21.060;2023-03-03T05:12:19;100532.50;;;-0.32;100.00
43683;BME280;29285;52.128;21.060;2023-03-03T05:17:20;100529.08;;;-0.27;100.00
43683;BME280;29285;52.128;21.060;2023-03-03T05:22:21;100525.83;;;-0.27;100.00
43683;BME280;29285;52.128;21.060;2023-03-03T05:27:23;100536.19;;;-0.29;100.00
43683;BME280;29285;52.128;21.060;2023-03-03T05:32:23;100531.88;;;-0.35;100.00
43683;BME280;29285;52.128;21.060;2023-03-03T05:37:24;100533.16;;;-0.43;100.00
43683;BME280;29285;52.128;21.060;2023-03-03T05:42:25;100536.87;;;-0.45;100.00
43683;BME280;29285;52.128;21.060;2023-03-03T05:47:26;100528.49;;;-0.46;100.00
43683;BME280;29285;52.128;21.060;2023-03-03T05:52:27;100526.71;;;-0.43;100.00
43683;BME280;29285;52.128;21.060;2023-03-03T05:57:27;100531.63;;;-0.38;100.00
43683;BME280;29285;52.128;21.060;2023-03-03T06:02:28;100532.77;;;-0.34;100.00
43683;BME280;29285;52.128;21.060;2023-03-03T06:07:30;100527.71;;;-0.38;100.00
43683;BME280;29285;52.128;21.060;2023-03-03T06:12:31;100527.64;;;-0.40;100.00
43683;BME280;29285;52.128;21.060;2023-03-03T06:17:32;100518.56;;;-0.47;100.00
43683;BME280;29285;52.128;21.060;2023-03-03T06:22:32;100517.32;;;-0.54;100.00
43683;BME280;29285;52.128;21.060;2023-03-03T06:27:33;100524.09;;;-0.60;100.00
43683;BME280;29285;52.128;21.060;2023-03-03T06:32:34;100527.27;;;-0.62;100.00
43683;BME280;29285;52.128;21.060;2023-03-03T06:37:35;100537.26;;;-0.70;100.00
43683;BME280;29285;52.128;21.060;2023-03-03T06:42:36;100537.85;;;-0.67;100.00
43683;BME280;29285;52.128;21.060;2023-03-03T06:47:37;100531.66;;;-0.58;100.00
43683;BME280;29285;52.128;21.060;2023-03-03T06:52:38;100537.75;;;-0.55;100.00
43683;BME280;29285;52.128;21.060;2023-03-03T06:57:39;100543.45;;;-0.57;100.00
43683;BME280;29285;52.128;21.060;2023-03-03T07:02:40;100539.33;;;-0.64;100.00
43683;BME280;29285;52.128;21.060;2023-03-03T07:07:41;100539.71;;;-0.62;100.00
43683;BME280;29285;52.128;21.060;2023-03-03T07:12:43;100544.40;;;-0.54;100.00
43683;BME280;29285;52.128;21.060;2023-03-03T07:17:44;100536.43;;;-0.53;100.00
43683;BME280;29285;52.128;21.060;2023-03-03T07:22:47;100533.40;;;-0.62;100.00
43683;BME280;29285;52.128;21.060;2023-03-03T07:27:48;100534.73;;;-0.48;100.00
43683;BME280;29285;52.128;21.060;2023-03-03T07:32:49;100536.16;;;-0.40;100.00
43683;BME280;29285;52.128;21.060;2023-03-03T07:37:53;100530.50;;;-0.42;100.00
43683;BME280;29285;52.128;21.060;2023-03-03T07:42:54;100529.77;;;-0.54;100.00
43683;BME280;29285;52.128;21.060;2023-03-03T07:47:58;100530.83;;;-0.52;100.00
43683;BME280;29285;52.128;21.060;2023-03-03T07:53:01;100548.38;;;-0.53;100.00
43683;BME280;29285;52.128;21.060;2023-03-03T08:03:19;100549.80;;;-0.51;100.00
43683;BME280;29285;52.128;21.060;2023-03-03T08:08:30;100552.13;;;-0.42;100.00
43683;BME280;29285;52.128;21.060;2023-03-03T08:18:35;100549.83;;;-0.29;100.00
43683;BME280;29285;52.128;21.060;2023-03-03T08:23:36;100555.39;;;-0.20;100.00
43683;BME280;29285;52.128;21.060;2023-03-03T08:28:37;100555.55;;;-0.14;100.00
43683;BME280;29285;52.128;21.060;2023-03-03T08:33:38;100561.58;;;-0.07;100.00
43683;BME280;29285;52.128;21.060;2023-03-03T08:38:39;100557.23;;;0.01;100.00
43683;BME280;29285;52.128;21.060;2023-03-03T08:43:40;100562.80;;;0.17;100.00
43683;BME280;29285;52.128;21.060;2023-03-03T08:48:42;100566.81;;;0.25;100.00
43683;BME280;29285;52.128;21.060;2023-03-03T08:53:44;100558.48;;;0.32;100.00
43683;BME280;29285;52.128;21.060;2023-03-03T08:58:45;100554.06;;;0.45;100.00
43683;BME280;29285;52.128;21.060;2023-03-03T09:03:47;100562.55;;;0.55;100.00
43683;BME280;29285;52.128;21.060;2023-03-03T09:08:48;100591.41;;;0.55;100.00
43683;BME280;29285;52.128;21.060;2023-03-03T09:13:49;100590.74;;;0.61;100.00
43683;BME280;29285;52.128;21.060;2023-03-03T09:18:52;100599.13;;;0.56;100.00
43683;BME280;29285;52.128;21.060;2023-03-03T09:23:54;100601.42;;;0.53;100.00
43683;BME280;29285;52.128;21.060;2023-03-03T09:29:14;100586.90;;;0.46;100.00
43683;BME280;29285;52.128;21.060;2023-03-03T09:34:18;100566.58;;;0.40;100.00
43683;BME280;29285;52.128;21.060;2023-03-03T09:39:21;100553.23;;;0.46;100.00
43683;BME280;29285;52.128;21.060;2023-03-03T09:49:51;100546.82;;;0.48;100.00
43683;BME280;29285;52.128;21.060;2023-03-03T09:55:03;100552.54;;;0.45;100.00
43683;BME280;29285;52.128;21.060;2023-03-03T10:00:29;100554.08;;;0.39;100.00
43683;BME280;29285;52.128;21.060;2023-03-03T10:16:05;100522.73;;;0.48;100.00
43683;BME280;29285;52.128;21.060;2023-03-03T10:21:11;100527.38;;;0.42;100.00
43683;BME280;29285;52.128;21.060;2023-03-03T10:26:18;100528.00;;;0.41;100.00
43683;BME280;29285;52.128;21.060;2023-03-03T10:47:27;100538.20;;;0.39;100.00
43683;BME280;29285;52.128;21.060;2023-03-03T10:57:48;100555.49;;;0.53;100.00
43683;BME280;29285;52.128;21.060;2023-03-03T11:12:59;100540.73;;;0.38;100.00
43683;BME280;29285;52.128;21.060;2023-03-03T11:28:28;100552.94;;;0.35;100.00
43683;BME280;29285;52.128;21.060;2023-03-03T11:38:33;100542.14;;;0.34;100.00
43683;BME280;29285;52.128;21.060;2023-03-03T11:43:57;100531.58;;;0.28;100.00
43683;BME280;29285;52.128;21.060;2023-03-03T11:49:04;100527.27;;;0.21;100.00
43683;BME280;29285;52.128;21.060;2023-03-03T11:59:24;100516.31;;;0.20;100.00
43683;BME280;29285;52.128;21.060;2023-03-03T12:04:37;100519.32;;;0.23;100.00
43683;BME280;29285;52.128;21.060;2023-03-03T12:10:05;100523.27;;;0.30;100.00
43683;BME280;29285;52.128;21.060;2023-03-03T12:25:19;100528.10;;;0.38;100.00
43683;BME280;29285;52.128;21.060;2023-03-03T12:35:43;100529.88;;;0.40;100.00
43683;BME280;29285;52.128;21.060;2023-03-03T12:40:57;100525.61;;;0.41;100.00
43683;BME280;29285;52.128;21.060;2023-03-03T12:56:48;100533.89;;;0.20;100.00
43683;BME280;29285;52.128;21.060;2023-03-03T13:07:18;100525.90;;;0.21;100.00
43683;BME280;29285;52.128;21.060;2023-03-03T13:17:30;100527.63;;;0.22;100.00
43683;BME280;29285;52.128;21.060;2023-03-03T13:22:41;100532.16;;;0.19;100.00
43683;BME280;29285;52.128;21.060;2023-03-03T13:27:44;100524.83;;;0.13;100.00
43683;BME280;29285;52.128;21.060;2023-03-03T13:37:52;100519.74;;;0.03;100.00
43683;BME280;29285;52.128;21.060;2023-03-03T13:43:01;100529.45;;;0.02;100.00
43683;BME280;29285;52.128;21.060;2023-03-03T14:18:57;100484.75;;;0.08;100.00
43683;BME280;29285;52.128;21.060;2023-03-03T14:24:10;100491.16;;;0.11;100.00
43683;BME280;29285;52.128;21.060;2023-03-03T14:39:31;100492.16;;;-0.01;100.00
43683;BME280;29285;52.128;21.060;2023-03-03T14:44:36;100495.80;;;0.01;100.00
43683;BME280;29285;52.128;21.060;2023-03-03T14:49:47;100497.27;;;0.04;100.00
43683;BME280;29285;52.128;21.060;2023-03-03T14:54:49;100500.81;;;0.09;100.00
43683;BME280;29285;52.128;21.060;2023-03-03T14:59:57;100493.96;;;0.08;100.00
43683;BME280;29285;52.128;21.060;2023-03-03T15:10:26;100496.13;;;0.00;100.00
43683;BME280;29285;52.128;21.060;2023-03-03T15:15:27;100489.56;;;-0.02;100.00
43683;BME280;29285;52.128;21.060;2023-03-03T15:36:32;100492.16;;;-0.01;100.00
43683;BME280;29285;52.128;21.060;2023-03-03T15:56:50;100484.16;;;-0.11;100.00
43683;BME280;29285;52.128;21.060;2023-03-03T16:01:57;100482.30;;;-0.11;100.00
43683;BME280;29285;52.128;21.060;2023-03-03T16:12:04;100477.23;;;-0.16;100.00
43683;BME280;29285;52.128;21.060;2023-03-03T16:27:47;100482.85;;;-0.16;100.00
43683;BME280;29285;52.128;21.060;2023-03-03T16:32:50;100479.48;;;-0.20;100.00
43683;BME280;29285;52.128;21.060;2023-03-03T16:38:00;100469.13;;;-0.19;100.00
43683;BME280;29285;52.128;21.060;2023-03-03T16:48:13;100467.30;;;-0.11;100.00
43683;BME280;29285;52.128;21.060;2023-03-03T17:03:59;100464.25;;;-0.10;100.00
43683;BME280;29285;52.128;21.060;2023-03-03T17:14:21;100472.17;;;-0.14;100.00
43683;BME280;29285;52.128;21.060;2023-03-03T17:19:36;100473.93;;;-0.18;100.00
43683;BME280;29285;52.128;21.060;2023-03-03T17:24:47;100473.38;;;-0.20;100.00
43683;BME280;29285;52.128;21.060;2023-03-03T17:30:05;100467.21;;;-0.20;100.00
43683;BME280;29285;52.128;21.060;2023-03-03T17:45:16;100471.35;;;-0.19;100.00
43683;BME280;29285;52.128;21.060;2023-03-03T17:50:24;100469.55;;;-0.16;100.00
43683;BME280;29285;52.128;21.060;2023-03-03T18:11:29;100445.02;;;-0.09;100.00
43683;BME280;29285;52.128;21.060;2023-03-03T18:21:36;100440.61;;;-0.25;100.00
43683;BME280;29285;52.128;21.060;2023-03-03T18:26:39;100445.86;;;-0.32;100.00
43683;BME280;29285;52.128;21.060;2023-03-03T18:42:08;100427.80;;;-0.32;100.00
43683;BME280;29285;52.128;21.060;2023-03-03T18:47:10;100425.81;;;-0.30;100.00
43683;BME280;29285;52.128;21.060;2023-03-03T18:52:30;100434.28;;;-0.32;100.00
43683;BME280;29285;52.128;21.060;2023-03-03T18:57:31;100436.91;;;-0.30;100.00
43683;BME280;29285;52.128;21.060;2023-03-03T19:02:33;100420.81;;;-0.21;100.00
43683;BME280;29285;52.128;21.060;2023-03-03T19:12:40;100398.27;;;-0.21;100.00
43683;BME280;29285;52.128;21.060;2023-03-03T19:17:43;100397.11;;;-0.15;100.00
43683;BME280;29285;52.128;21.060;2023-03-03T19:22:48;100397.94;;;0.09;100.00
43683;BME280;29285;52.128;21.060;2023-03-03T19:53:33;100389.61;;;0.04;100.00
43683;BME280;29285;52.128;21.060;2023-03-03T20:44:34;100308.84;;;0.08;100.00
43683;BME280;29285;52.128;21.060;2023-03-03T20:49:43;100306.40;;;0.06;100.00
43683;BME280;29285;52.128;21.060;2023-03-03T20:55:06;100307.59;;;0.06;100.00
43683;BME280;29285;52.128;21.060;2023-03-03T21:05:17;100304.70;;;0.13;100.00
43683;BME280;29285;52.128;21.060;2023-03-03T21:10:20;100298.39;;;0.20;100.00
43683;BME280;29285;52.128;21.060;2023-03-03T21:15:28;100287.94;;;0.25;100.00
43683;BME280;29285;52.128;21.060;2023-03-03T21:20:30;100277.23;;;0.27;100.00
43683;BME280;29285;52.128;21.060;2023-03-03T21:25:45;100271.40;;;0.26;100.00
43683;BME280;29285;52.128;21.060;2023-03-03T21:36:06;100261.05;;;0.28;100.00
43683;BME280;29285;52.128;21.060;2023-03-03T21:41:07;100266.27;;;0.32;100.00
43683;BME280;29285;52.128;21.060;2023-03-03T21:46:08;100255.83;;;0.31;100.00
43683;BME280;29285;52.128;21.060;2023-03-03T21:51:10;100243.21;;;0.25;100.00
43683;BME280;29285;52.128;21.060;2023-03-03T21:56:13;100234.48;;;0.31;100.00
43683;BME280;29285;52.128;21.060;2023-03-03T22:01:14;100230.11;;;0.33;100.00
43683;BME280;29285;52.128;21.060;2023-03-03T22:06:15;100228.59;;;0.27;100.00
43683;BME280;29285;52.128;21.060;2023-03-03T22:11:17;100221.83;;;0.29;100.00
43683;BME280;29285;52.128;21.060;2023-03-03T22:16:18;100208.35;;;0.52;100.00
43683;BME280;29285;52.128;21.060;2023-03-03T22:21:18;100198.43;;;0.75;100.00
43683;BME280;29285;52.128;21.060;2023-03-03T22:26:19;100195.66;;;0.88;100.00
43683;BME280;29285;52.128;21.060;2023-03-03T22:31:21;100192.54;;;0.78;100.00
43683;BME280;29285;52.128;21.060;2023-03-03T22:36:22;100189.51;;;0.64;100.00
43683;BME280;29285;52.128;21.060;2023-03-03T22:41:23;100181.36;;;0.51;100.00
43683;BME280;29285;52.128;21.060;2023-03-03T22:46:24;100171.16;;;0.46;100.00
43683;BME280;29285;52.128;21.060;2023-03-03T22:51:25;100158.77;;;0.80;100.00
43683;BME280;29285;52.128;21.060;2023-03-03T22:56:26;100147.31;;;0.80;100.00
43683;BME280;29285;52.128;21.060;2023-03-03T23:01:27;100137.89;;;0.62;100.00
43683;BME280;29285;52.128;21.060;2023-03-03T23:06:32;100123.20;;;0.53;100.00
43683;BME280;29285;52.128;21.060;2023-03-03T23:11:54;100107.11;;;0.51;100.00
43683;BME280;29285;52.128;21.060;2023-03-03T23:16:55;100109.94;;;0.57;100.00
43683;BME280;29285;52.128;21.060;2023-03-03T23:21:56;100109.54;;;0.54;100.00
43683;BME280;29285;52.128;21.060;2023-03-03T23:26:57;100105.52;;;0.50;100.00
43683;BME280;29285;52.128;21.060;2023-03-03T23:31:58;100096.46;;;0.49;100.00
43683;BME280;29285;52.128;21.060;2023-03-03T23:36:59;100087.36;;;0.46;100.00
43683;BME280;29285;52.128;21.060;2023-03-03T23:42:00;100087.11;;;0.43;100.00
43683;BME280;29285;52.128;21.060;2023-03-03T23:47:00;100083.90;;;0.44;100.00
43683;BME280;29285;52.128;21.060;2023-03-03T23:52:01;100070.83;;;0.48;100.00
43683;BME280;29285;52.128;21.060;2023-03-03T23:57:02;100066.20;;;0.47;100.00
